MV Melite — V7TM5 — position and weather

sailwx.info

Track history (hours):
 
Tides and Currents Weather Stations Pressure Air Temp Water Temp Dewpoint Dewpoint Depression Visibility Wind Speed Wind Dir Waves Ship Positions

MV Melite

Last reported at 2017-Nov-23 11:11 UTC. Time now 2017-Dec-14 00:43 UTC.
Position N 01°22' E 103°17'.
Warning: this ship's position is 20 days out of date.

Length 225 m; draft 4.8 m.

Type: Cargo ship. MMSI: 538003832.

Date/timePositionNaut miles runAvg speedWind from/ knotsBaromVisibWave heightAir tempDewpointWater temp
2017-Nov-23 11:11N 01°22' E 103°17'1 5.7
2017-Nov-23 10:57N 01°21' E 103°18'3 5.4
2017-Nov-23 10:28N 01°19' E 103°20'3 5.5
2017-Nov-23 09:59N 01°17' E 103°22'2 5.2
2017-Nov-23 09:30N 01°16' E 103°24'2 4.9
2017-Nov-23 09:00N 01°15' E 103°26'2 4.9
2017-Nov-23 08:30N 01°14' E 103°28'2 4.8
2017-Nov-23 08:00N 01°13' E 103°30'2 4.3
2017-Nov-23 07:30N 01°12' E 103°33'2 4.0
2017-Nov-23 07:00N 01°12' E 103°34'2 3.9
2017-Nov-23 06:30N 01°12' E 103°36'2 3.9
2017-Nov-23 06:00N 01°11' E 103°38'3 5.0
2017-Nov-23 05:30N 01°11' E 103°41'3 5.6
2017-Nov-23 05:00N 01°09' E 103°43'3 5.8
2017-Nov-23 04:30N 01°09' E 103°46'4 7.0
2017-Nov-23 04:00N 01°11' E 103°49'4 7.7
2017-Nov-23 03:30N 01°12' E 103°53'4 7.5
2017-Nov-23 03:00N 01°14' E 103°56'4 7.4
2017-Nov-23 02:30N 01°15' E 103°59'  
Track history (hours):
 
Tides and Currents Weather Stations Pressure Air Temp Water Temp Dewpoint Dewpoint Depression Visibility Wind Speed Wind Dir Waves Ship Positions

MV Melite

Last reported at 2017-Nov-23 11:11 UTC. Time now 2017-Dec-14 00:43 UTC.
Position N 01°22' E 103°17'.
Warning: this ship's position is 20 days out of date.

Length 225 m; draft 4.8 m.

Type: Cargo ship. MMSI: 538003832.

Date/timePositionNaut miles runAvg speedWind from/ knotsBaromVisibWave heightAir tempDewpointWater temp
2017-Nov-23 11:11N 01°22' E 103°17'1 5.7
2017-Nov-23 10:57N 01°21' E 103°18'3 5.4
2017-Nov-23 10:28N 01°19' E 103°20'3 5.5
2017-Nov-23 09:59N 01°17' E 103°22'2 5.2
2017-Nov-23 09:30N 01°16' E 103°24'2 4.9
2017-Nov-23 09:00N 01°15' E 103°26'2 4.9
2017-Nov-23 08:30N 01°14' E 103°28'2 4.8
2017-Nov-23 08:00N 01°13' E 103°30'2 4.3
2017-Nov-23 07:30N 01°12' E 103°33'2 4.0
2017-Nov-23 07:00N 01°12' E 103°34'2 3.9
2017-Nov-23 06:30N 01°12' E 103°36'2 3.9
2017-Nov-23 06:00N 01°11' E 103°38'3 5.0
2017-Nov-23 05:30N 01°11' E 103°41'3 5.6
2017-Nov-23 05:00N 01°09' E 103°43'3 5.8
2017-Nov-23 04:30N 01°09' E 103°46'4 7.0
2017-Nov-23 04:00N 01°11' E 103°49'4 7.7
2017-Nov-23 03:30N 01°12' E 103°53'4 7.5
2017-Nov-23 03:00N 01°14' E 103°56'4 7.4
2017-Nov-23 02:30N 01°15' E 103°59'  

Dump ship's entire track history